createdAt,value
2018-06-12T00:00:15.122Z,984.42
2018-06-12T00:01:15.358Z,984.46
2018-06-12T00:02:15.582Z,984.45
2018-06-12T00:03:15.805Z,984.48
2018-06-12T00:04:16.041Z,984.54
2018-06-12T00:05:16.276Z,984.49
2018-06-12T00:06:16.505Z,984.52
2018-06-12T00:07:16.738Z,984.58
2018-06-12T00:08:16.964Z,984.55
2018-06-12T00:09:17.197Z,984.57
2018-06-12T00:10:17.425Z,984.55
2018-06-12T00:11:17.659Z,984.51
2018-06-12T00:12:17.900Z,984.53
2018-06-12T00:13:18.116Z,984.54
2018-06-12T00:14:18.351Z,984.52
2018-06-12T00:15:18.573Z,984.52
2018-06-12T00:16:18.791Z,984.53
2018-06-12T00:17:19.021Z,984.53
2018-06-12T00:18:19.258Z,984.52
2018-06-12T00:19:19.487Z,984.47
2018-06-12T00:20:19.721Z,984.51
2018-06-12T00:21:19.946Z,984.49
2018-06-12T00:22:20.177Z,984.44
2018-06-12T00:23:20.404Z,984.43
2018-06-12T00:24:20.642Z,984.43
2018-06-12T00:25:20.863Z,984.44
2018-06-12T00:26:21.096Z,984.45
2018-06-12T00:27:21.322Z,984.45
2018-06-12T00:28:21.557Z,984.46
2018-06-12T00:29:21.790Z,984.50
2018-06-12T00:30:22.018Z,984.52
2018-06-12T00:31:22.249Z,984.53
2018-06-12T00:32:22.477Z,984.54
2018-06-12T00:33:22.709Z,984.58
2018-06-12T00:34:22.938Z,984.59
2018-06-12T00:35:23.166Z,984.61
2018-06-12T00:36:23.396Z,984.65
2018-06-12T00:37:23.631Z,984.68
2018-06-12T00:38:23.855Z,984.71
2018-06-12T00:39:24.084Z,984.68
2018-06-12T00:40:24.312Z,984.67
2018-06-12T00:41:24.542Z,984.66
2018-06-12T00:42:24.770Z,984.67
2018-06-12T00:43:25.003Z,984.65
2018-06-12T00:44:25.233Z,984.58
2018-06-12T00:45:25.472Z,984.59
2018-06-12T00:46:25.693Z,984.59
2018-06-12T00:47:25.929Z,984.60
2018-06-12T00:48:26.163Z,984.59
2018-06-12T00:49:26.396Z,984.61
2018-06-12T00:50:26.631Z,984.59
2018-06-12T00:51:26.854Z,984.62
2018-06-12T00:52:27.080Z,984.61
2018-06-12T00:53:27.314Z,984.62
2018-06-12T00:54:27.541Z,984.61
2018-06-12T00:55:27.775Z,984.59
2018-06-12T00:56:28.006Z,984.56
2018-06-12T00:57:28.238Z,984.60
2018-06-12T00:58:28.465Z,984.57
2018-06-12T00:59:28.694Z,984.59
2018-06-12T01:00:28.928Z,984.60
2018-06-12T01:01:29.157Z,984.57
2018-06-12T01:02:29.384Z,984.59
2018-06-12T01:03:29.614Z,984.61
2018-06-12T01:04:29.851Z,984.61
2018-06-12T01:05:30.083Z,984.59
2018-06-12T01:06:30.312Z,984.64
2018-06-12T01:07:30.540Z,984.63
2018-06-12T01:08:30.807Z,984.65
2018-06-12T01:09:31.035Z,984.68
2018-06-12T01:10:31.269Z,984.69
2018-06-12T01:11:31.501Z,984.70
2018-06-12T01:12:31.730Z,984.72
2018-06-12T01:13:31.964Z,984.71
2018-06-12T01:14:32.197Z,984.74
2018-06-12T01:15:32.427Z,984.73
2018-06-12T01:16:32.656Z,984.73
2018-06-12T01:17:32.892Z,984.75
2018-06-12T01:18:33.115Z,984.78
2018-06-12T01:19:33.344Z,984.76
2018-06-12T01:20:33.575Z,984.79
2018-06-12T01:21:33.808Z,984.76
2018-06-12T01:22:34.049Z,984.73
2018-06-12T01:23:34.268Z,984.73
2018-06-12T01:24:34.499Z,984.78
2018-06-12T01:25:34.729Z,984.75
2018-06-12T01:26:34.965Z,984.71
2018-06-12T01:27:35.190Z,984.72
2018-06-12T01:28:35.420Z,984.71
2018-06-12T01:29:35.648Z,984.71
2018-06-12T01:30:35.879Z,984.72
2018-06-12T01:31:36.108Z,984.71
2018-06-12T01:32:36.351Z,984.68
2018-06-12T01:33:36.557Z,984.70
2018-06-12T01:34:36.796Z,984.71
2018-06-12T01:35:37.027Z,984.66
2018-06-12T01:36:37.258Z,984.71
2018-06-12T01:37:37.488Z,984.72
2018-06-12T01:38:37.728Z,984.71
2018-06-12T01:39:37.957Z,984.70
2018-06-12T01:40:38.181Z,984.74
2018-06-12T01:41:38.414Z,984.72
2018-06-12T01:42:38.646Z,984.75
2018-06-12T01:43:38.866Z,984.78
2018-06-12T01:44:39.090Z,984.81
2018-06-12T01:45:39.323Z,984.81
2018-06-12T01:46:39.555Z,984.83
2018-06-12T01:47:39.786Z,984.85
2018-06-12T01:48:40.024Z,984.86
2018-06-12T01:49:40.248Z,984.88
2018-06-12T01:50:40.484Z,984.90
2018-06-12T01:51:40.711Z,984.92
2018-06-12T01:52:40.939Z,984.91
2018-06-12T01:53:41.172Z,984.99
2018-06-12T01:54:41.401Z,984.95
2018-06-12T01:55:41.631Z,984.97
2018-06-12T01:56:41.864Z,984.97
2018-06-12T01:57:42.095Z,984.99
2018-06-12T01:58:42.326Z,984.99
2018-06-12T01:59:42.554Z,984.96
2018-06-12T02:00:42.787Z,985.00
2018-06-12T02:01:43.021Z,985.01
2018-06-12T02:02:43.250Z,984.98
2018-06-12T02:03:43.484Z,984.97
2018-06-12T02:04:43.714Z,984.95
2018-06-12T02:05:43.944Z,984.93
2018-06-12T02:06:44.173Z,984.96
2018-06-12T02:07:44.402Z,984.90
2018-06-12T02:08:44.639Z,984.92
2018-06-12T02:13:27.801Z,984.89
2018-06-12T02:13:51.964Z,984.91
2018-06-12T02:14:52.198Z,984.96
2018-06-12T02:15:52.431Z,984.92
2018-06-12T02:16:52.663Z,984.93
2018-06-12T02:17:52.897Z,984.93
2018-06-12T02:18:53.130Z,984.95
2018-06-12T02:19:53.363Z,984.96
2018-06-12T02:20:53.591Z,984.98
2018-06-12T02:21:53.821Z,984.98
2018-06-12T02:22:54.055Z,985.03
2018-06-12T02:23:54.287Z,985.05
2018-06-12T02:24:54.518Z,985.06
2018-06-12T02:25:54.749Z,985.04
2018-06-12T02:26:54.976Z,985.05
2018-06-12T02:27:55.207Z,985.04
2018-06-12T02:28:55.439Z,985.05
2018-06-12T02:29:55.668Z,985.06
2018-06-12T02:30:55.899Z,985.04
2018-06-12T02:31:56.131Z,985.03
2018-06-12T02:32:56.362Z,985.05
2018-06-12T02:33:56.597Z,985.06
2018-06-12T02:34:56.823Z,985.06
2018-06-12T02:35:57.056Z,985.06
2018-06-12T02:36:57.287Z,985.04
2018-06-12T02:37:57.520Z,985.05
2018-06-12T02:38:57.755Z,985.03
2018-06-12T02:39:57.986Z,985.04
2018-06-12T02:40:58.215Z,985.05
2018-06-12T02:41:58.446Z,985.06
2018-06-12T02:42:58.676Z,985.05
2018-06-12T02:43:58.909Z,985.06
2018-06-12T02:44:59.137Z,985.08
2018-06-12T02:45:59.375Z,985.08
2018-06-12T02:46:59.612Z,985.11
2018-06-12T02:47:59.831Z,985.12
2018-06-12T02:49:00.064Z,985.14
2018-06-12T02:50:00.294Z,985.14
2018-06-12T02:51:00.531Z,985.12
2018-06-12T02:52:00.759Z,985.14
2018-06-12T02:53:00.986Z,985.14
2018-06-12T02:54:01.221Z,985.12
2018-06-12T02:55:01.452Z,985.16
2018-06-12T02:56:01.682Z,985.18
2018-06-12T02:57:01.927Z,985.19
2018-06-12T02:58:02.144Z,985.17
2018-06-12T02:59:02.376Z,985.18
2018-06-12T03:00:02.609Z,985.17
2018-06-12T03:01:02.840Z,985.14
2018-06-12T03:02:03.070Z,985.17
2018-06-12T03:03:03.301Z,985.16
2018-06-12T03:04:03.531Z,985.16
2018-06-12T03:05:03.764Z,985.16
2018-06-12T03:06:03.994Z,985.19
2018-06-12T03:07:04.222Z,985.17
2018-06-12T03:08:04.452Z,985.20
2018-06-12T03:09:04.683Z,985.20
2018-06-12T03:10:04.914Z,985.17
2018-06-12T03:11:05.147Z,985.20
2018-06-12T03:12:05.378Z,985.19
2018-06-12T03:13:05.608Z,985.20
2018-06-12T03:14:05.839Z,985.17
2018-06-12T03:15:06.080Z,985.20
2018-06-12T03:16:06.306Z,985.20
2018-06-12T03:17:06.534Z,985.18
2018-06-12T03:18:06.766Z,985.20
2018-06-12T03:19:06.998Z,985.21
2018-06-12T03:20:07.230Z,985.19
2018-06-12T03:21:07.462Z,985.19
2018-06-12T03:22:07.695Z,985.19
2018-06-12T03:23:07.924Z,985.15
2018-06-12T03:24:08.154Z,985.16
2018-06-12T03:25:08.386Z,985.17
2018-06-12T03:26:08.622Z,985.17
2018-06-12T03:27:08.853Z,985.18
2018-06-12T03:28:09.083Z,985.16
2018-06-12T03:29:09.320Z,985.18
2018-06-12T03:30:09.552Z,985.19
2018-06-12T03:31:09.785Z,985.21
2018-06-12T03:32:10.013Z,985.20
2018-06-12T03:33:10.243Z,985.17
2018-06-12T03:34:10.473Z,985.20
2018-06-12T03:35:10.708Z,985.16
2018-06-12T03:36:10.938Z,985.21
2018-06-12T03:37:11.168Z,985.23
2018-06-12T03:38:11.401Z,985.19
2018-06-12T03:39:11.627Z,985.22
2018-06-12T03:40:11.860Z,985.21
2018-06-12T03:41:12.092Z,985.21
2018-06-12T03:42:12.321Z,985.22
2018-06-12T03:43:12.552Z,985.22
2018-06-12T03:44:12.784Z,985.21
2018-06-12T03:45:13.016Z,985.22
2018-06-12T03:46:13.247Z,985.22
2018-06-12T03:47:13.490Z,985.22
2018-06-12T03:48:13.709Z,985.23
2018-06-12T03:49:13.938Z,985.26
2018-06-12T03:50:14.174Z,985.23
2018-06-12T03:51:14.406Z,985.25
2018-06-12T03:52:14.633Z,985.27
2018-06-12T03:53:14.867Z,985.28
2018-06-12T03:54:15.095Z,985.26
2018-06-12T03:55:15.332Z,985.26
2018-06-12T03:56:15.563Z,985.23
2018-06-12T03:57:15.794Z,985.25
2018-06-12T03:58:16.027Z,985.23
2018-06-12T03:59:16.258Z,985.26
2018-06-12T04:00:16.488Z,985.20
2018-06-12T04:01:16.720Z,985.21
2018-06-12T04:02:16.951Z,985.17
2018-06-12T04:03:17.183Z,985.17
2018-06-12T04:04:17.416Z,985.20
2018-06-12T04:05:17.648Z,985.18
2018-06-12T04:06:17.876Z,985.14
2018-06-12T04:07:18.109Z,985.17
2018-06-12T04:08:18.339Z,985.13
2018-06-12T04:09:18.614Z,985.13
2018-06-12T04:10:18.805Z,985.15
2018-06-12T04:11:19.036Z,985.15
2018-06-12T04:12:19.268Z,985.16
2018-06-12T04:13:19.499Z,985.16
2018-06-12T04:14:19.732Z,985.17
2018-06-12T04:15:19.960Z,985.16
2018-06-12T04:16:20.191Z,985.18
2018-06-12T04:17:20.421Z,985.23
2018-06-12T04:18:20.653Z,985.19
2018-06-12T04:19:20.882Z,985.23
2018-06-12T04:20:21.112Z,985.19
2018-06-12T04:21:21.346Z,985.22
2018-06-12T04:22:21.575Z,985.20
2018-06-12T04:23:21.805Z,985.21
2018-06-12T04:24:22.034Z,985.22
2018-06-12T04:25:22.265Z,985.23
2018-06-12T04:26:22.498Z,985.19
2018-06-12T04:27:22.728Z,985.21
2018-06-12T04:28:22.960Z,985.22
2018-06-12T04:29:23.189Z,985.19
2018-06-12T04:30:23.422Z,985.22
2018-06-12T04:31:23.651Z,985.21
2018-06-12T04:32:23.888Z,985.25
2018-06-12T04:33:24.116Z,985.20
2018-06-12T04:34:24.347Z,985.22
2018-06-12T04:35:24.577Z,985.26
2018-06-12T04:36:24.807Z,985.25
2018-06-12T04:37:25.037Z,985.28
2018-06-12T04:38:25.272Z,985.32
2018-06-12T04:39:25.498Z,985.33
2018-06-12T04:40:25.724Z,985.33
2018-06-12T04:41:25.955Z,985.32
2018-06-12T04:42:26.189Z,985.32
2018-06-12T04:43:26.458Z,985.32
2018-06-12T04:44:26.647Z,985.30
2018-06-12T04:45:26.877Z,985.33
2018-06-12T04:46:27.107Z,985.31
2018-06-12T04:47:27.341Z,985.37
2018-06-12T04:48:27.573Z,985.36
2018-06-12T04:49:27.804Z,985.36
2018-06-12T04:50:28.034Z,985.37
2018-06-12T04:51:28.263Z,985.37
2018-06-12T04:52:28.497Z,985.38
2018-06-12T04:53:28.728Z,985.37
2018-06-12T04:54:28.956Z,985.33
2018-06-12T04:55:29.188Z,985.34
2018-06-12T04:56:29.416Z,985.35
2018-06-12T04:57:29.647Z,985.31
2018-06-12T04:58:29.879Z,985.32
2018-06-12T04:59:30.111Z,985.34
2018-06-12T05:00:30.341Z,985.35
2018-06-12T05:01:30.572Z,985.38
2018-06-12T05:02:30.806Z,985.36
2018-06-12T05:03:31.034Z,985.37
2018-06-12T05:04:31.265Z,985.39
2018-06-12T05:05:31.496Z,985.40
2018-06-12T05:06:31.724Z,985.41
2018-06-12T05:07:31.955Z,985.45
2018-06-12T05:08:32.191Z,985.46
2018-06-12T05:09:32.417Z,985.45
2018-06-12T05:10:32.688Z,985.46
2018-06-12T05:11:32.879Z,985.48
2018-06-12T05:12:33.132Z,985.48
2018-06-12T05:13:33.342Z,985.46
2018-06-12T05:14:33.575Z,985.44
2018-06-12T05:15:33.804Z,985.43
2018-06-12T05:16:34.035Z,985.45
2018-06-12T05:17:34.285Z,985.48
2018-06-12T05:18:34.492Z,985.44
2018-06-12T05:19:34.732Z,985.43
2018-06-12T05:20:34.941Z,985.43
2018-06-12T05:21:35.170Z,985.44
2018-06-12T05:22:35.401Z,985.46
2018-06-12T05:23:35.632Z,985.45
2018-06-12T05:24:35.864Z,985.46
2018-06-12T05:25:36.130Z,985.44
2018-06-12T05:26:36.328Z,985.40
2018-06-12T05:27:36.557Z,985.46
2018-06-12T05:28:36.791Z,985.45
2018-06-12T05:29:37.017Z,985.49
2018-06-12T05:30:37.256Z,985.48
2018-06-12T05:31:37.474Z,985.47
2018-06-12T05:32:37.703Z,985.51
2018-06-12T05:33:37.931Z,985.46
2018-06-12T05:34:38.187Z,985.50
2018-06-12T05:35:38.433Z,985.54
2018-06-12T05:36:38.652Z,985.56
2018-06-12T05:37:38.878Z,985.56
2018-06-12T05:38:39.106Z,985.59
2018-06-12T05:39:39.344Z,985.64
2018-06-12T05:40:39.574Z,985.62
2018-06-12T05:41:39.805Z,985.63
2018-06-12T05:42:40.035Z,985.65
2018-06-12T05:43:40.268Z,985.67
2018-06-12T05:44:40.493Z,985.71
2018-06-12T05:45:40.724Z,985.69
2018-06-12T05:46:40.961Z,985.70
2018-06-12T05:47:41.189Z,985.72
2018-06-12T05:48:41.415Z,985.71
2018-06-12T05:49:41.646Z,985.68
2018-06-12T05:50:41.879Z,985.71
2018-06-12T05:51:42.111Z,985.70
2018-06-12T05:52:42.347Z,985.73
2018-06-12T05:53:42.570Z,985.68
2018-06-12T05:54:42.803Z,985.70
2018-06-12T05:55:43.085Z,985.72
2018-06-12T05:56:43.266Z,985.73
2018-06-12T05:57:43.497Z,985.77
2018-06-12T05:58:43.735Z,985.79
2018-06-12T05:59:43.962Z,985.78
2018-06-12T06:00:44.192Z,985.77
2018-06-12T06:01:44.424Z,985.82
2018-06-12T06:02:44.655Z,985.74
2018-06-12T06:03:44.886Z,985.82
2018-06-12T06:04:45.121Z,985.82
2018-06-12T06:05:45.344Z,985.88
2018-06-12T06:06:45.580Z,985.84
2018-06-12T06:07:45.810Z,985.86
2018-06-12T06:08:46.037Z,985.87
2018-06-12T06:09:46.266Z,985.85
2018-06-12T06:10:46.500Z,985.85
2018-06-12T06:11:46.733Z,985.87
2018-06-12T06:12:46.962Z,985.91
2018-06-12T06:13:47.198Z,985.94
2018-06-12T06:14:47.425Z,985.97
2018-06-12T06:15:47.656Z,985.97
2018-06-12T06:16:47.890Z,985.94
2018-06-12T06:17:48.119Z,985.97
2018-06-12T06:18:48.354Z,986.02
2018-06-12T06:19:48.602Z,985.99
2018-06-12T06:20:48.812Z,986.00
2018-06-12T06:21:49.030Z,986.01
2018-06-12T06:22:49.266Z,986.03
2018-06-12T06:23:49.492Z,986.09
2018-06-12T06:24:49.725Z,986.09
2018-06-12T06:25:49.959Z,986.09
2018-06-12T06:26:50.185Z,986.16
2018-06-12T06:27:50.417Z,986.08
2018-06-12T06:28:50.649Z,986.09
2018-06-12T06:29:50.881Z,986.10
2018-06-12T06:30:51.104Z,986.11
2018-06-12T06:31:51.336Z,986.11
2018-06-12T06:32:51.568Z,986.08
2018-06-12T06:33:51.800Z,986.07
2018-06-12T06:34:52.032Z,986.12
2018-06-12T06:35:52.264Z,986.10
2018-06-12T06:36:52.496Z,986.17
2018-06-12T06:37:52.726Z,986.11
2018-06-12T06:38:52.960Z,986.09
2018-06-12T06:39:53.192Z,986.15
2018-06-12T06:40:53.424Z,986.14
2018-06-12T06:41:53.657Z,986.17
2018-06-12T06:42:53.888Z,986.23
2018-06-12T06:43:54.122Z,986.21
2018-06-12T06:44:54.354Z,986.22
2018-06-12T06:45:54.583Z,986.27
2018-06-12T06:46:54.815Z,986.26
2018-06-12T06:47:55.048Z,986.29
2018-06-12T06:48:55.280Z,986.26
2018-06-12T06:49:55.510Z,986.31
2018-06-12T06:50:55.763Z,986.32
2018-06-12T06:51:55.976Z,986.31
2018-06-12T06:52:56.209Z,986.34
2018-06-12T06:53:56.443Z,986.28
2018-06-12T06:54:56.672Z,986.31
2018-06-12T06:55:56.905Z,986.31
2018-06-12T06:56:57.138Z,986.28
2018-06-12T06:57:57.371Z,986.28
2018-06-12T06:58:57.602Z,986.30
2018-06-12T06:59:57.834Z,986.23
2018-06-12T07:00:58.065Z,986.25
2018-06-12T07:01:58.298Z,986.23
2018-06-12T07:02:58.533Z,986.30
2018-06-12T07:03:58.760Z,986.27
2018-06-12T07:04:58.996Z,986.26
2018-06-12T07:05:59.228Z,986.24
2018-06-12T07:06:59.460Z,986.24
2018-06-12T07:07:59.691Z,986.20
2018-06-12T07:08:59.931Z,986.24
2018-06-12T07:10:00.154Z,986.24
2018-06-12T07:11:00.386Z,986.29
2018-06-12T07:12:00.619Z,986.23
2018-06-12T07:13:00.850Z,986.23
2018-06-12T07:14:01.085Z,986.25
2018-06-12T07:15:01.391Z,986.23
2018-06-12T07:16:01.550Z,986.19
2018-06-12T07:17:01.779Z,986.21
2018-06-12T07:18:02.022Z,986.22
2018-06-12T07:19:02.244Z,986.29
2018-06-12T07:20:02.475Z,986.27
2018-06-12T07:21:02.710Z,986.31
2018-06-12T07:22:02.940Z,986.26
2018-06-12T07:23:03.207Z,986.26
2018-06-12T07:24:03.439Z,986.30
2018-06-12T07:25:03.670Z,986.31
2018-06-12T07:26:03.905Z,986.29
2018-06-12T07:27:04.133Z,986.32
2018-06-12T07:28:04.367Z,986.26
2018-06-12T07:29:04.603Z,986.30
2018-06-12T07:30:04.834Z,986.28
2018-06-12T07:31:05.063Z,986.29
2018-06-12T07:32:05.294Z,986.30
2018-06-12T07:33:05.530Z,986.26
2018-06-12T07:34:05.761Z,986.25
2018-06-12T07:35:05.993Z,986.29
2018-06-12T07:36:06.222Z,986.25
2018-06-12T07:37:06.460Z,986.26
2018-06-12T07:38:06.694Z,986.30
2018-06-12T07:39:06.925Z,986.25
2018-06-12T07:40:07.155Z,986.22
2018-06-12T07:41:07.386Z,986.24
2018-06-12T07:42:07.618Z,986.20
2018-06-12T07:43:07.855Z,986.26
2018-06-12T07:44:08.085Z,986.16
2018-06-12T07:45:08.315Z,986.19
2018-06-12T07:46:08.551Z,986.19
2018-06-12T07:47:08.782Z,986.15
2018-06-12T07:48:09.014Z,986.15
2018-06-12T07:49:09.250Z,986.14
2018-06-12T07:50:09.490Z,986.15
2018-06-12T07:51:09.717Z,986.17
2018-06-12T07:52:09.947Z,986.20
2018-06-12T07:53:10.180Z,986.19
2018-06-12T07:54:10.420Z,986.19
2018-06-12T07:55:10.644Z,986.17
2018-06-12T07:56:10.872Z,986.20
2018-06-12T07:57:11.109Z,986.20
2018-06-12T07:58:11.343Z,986.20
2018-06-12T07:59:11.575Z,986.21
2018-06-12T08:00:11.807Z,986.17
2018-06-12T08:01:12.037Z,986.19
2018-06-12T08:02:12.271Z,986.18
2018-06-12T08:03:12.499Z,986.19
2018-06-12T08:04:12.733Z,986.21
2018-06-12T08:05:12.965Z,986.17
2018-06-12T08:06:13.198Z,986.17
2018-06-12T08:07:13.430Z,986.20
2018-06-12T08:08:13.663Z,986.21
2018-06-12T08:09:13.897Z,986.27
2018-06-12T08:10:14.131Z,986.18
2018-06-12T08:11:14.373Z,986.26
2018-06-12T08:12:14.596Z,986.22
2018-06-12T08:13:14.832Z,986.21
2018-06-12T08:14:15.068Z,986.19
2018-06-12T08:15:15.296Z,986.14
2018-06-12T08:16:15.537Z,986.18
2018-06-12T08:17:15.765Z,986.16
2018-06-12T08:18:16.001Z,986.24
2018-06-12T08:19:16.230Z,986.24
2018-06-12T08:20:16.464Z,986.23
2018-06-12T08:21:16.697Z,986.19
2018-06-12T08:22:16.929Z,986.25
2018-06-12T08:23:17.159Z,986.23
2018-06-12T08:24:17.392Z,986.27
2018-06-12T08:25:17.629Z,986.28
2018-06-12T08:26:17.859Z,986.30
2018-06-12T08:27:18.104Z,986.28
2018-06-12T08:28:18.337Z,986.26
2018-06-12T08:29:18.568Z,986.23
2018-06-12T08:30:18.903Z,986.26
2018-06-12T08:31:19.038Z,986.21
2018-06-12T08:32:19.268Z,986.26
2018-06-12T08:33:19.501Z,986.24
2018-06-12T08:34:19.735Z,986.25
2018-06-12T08:35:19.974Z,986.26
2018-06-12T08:36:20.198Z,986.28
2018-06-12T08:37:20.433Z,986.33
2018-06-12T08:38:20.665Z,986.32
2018-06-12T08:39:20.897Z,986.36
2018-06-12T08:40:21.134Z,986.33
2018-06-12T08:41:21.366Z,986.35
2018-06-12T08:42:21.603Z,986.37
2018-06-12T08:43:21.837Z,986.38
2018-06-12T08:44:22.067Z,986.36
2018-06-12T08:45:22.308Z,986.40
2018-06-12T08:46:22.540Z,986.37
2018-06-12T08:47:22.766Z,986.35
2018-06-12T08:48:23.011Z,986.32
2018-06-12T08:49:23.914Z,986.38
2018-06-12T08:50:23.503Z,986.40
2018-06-12T08:51:23.732Z,986.40
2018-06-12T08:52:23.967Z,986.41
2018-06-12T08:53:24.203Z,986.53
2018-06-12T08:54:24.436Z,986.55
2018-06-12T08:55:24.668Z,986.50
2018-06-12T08:56:24.909Z,986.53
2018-06-12T08:57:25.142Z,986.48
2018-06-12T08:58:25.371Z,986.46
2018-06-12T08:59:25.611Z,986.47
2018-06-12T09:00:25.842Z,986.47
2018-06-12T09:01:26.074Z,986.51
2018-06-12T09:02:26.322Z,986.47
2018-06-12T09:03:26.555Z,986.50
2018-06-12T09:04:26.781Z,986.44
2018-06-12T09:05:27.015Z,986.43
2018-06-12T09:06:27.271Z,986.39
2018-06-12T09:07:27.483Z,986.40
2018-06-12T09:08:27.722Z,986.41
2018-06-12T09:09:27.945Z,986.36
2018-06-12T09:10:28.181Z,986.39
2018-06-12T09:11:28.430Z,986.42
2018-06-12T09:12:28.664Z,986.35
2018-06-12T09:13:28.902Z,986.40
2018-06-12T09:14:29.139Z,986.37
2018-06-12T09:15:29.374Z,986.37
2018-06-12T09:16:29.610Z,986.33
2018-06-12T09:17:29.850Z,986.34
2018-06-12T09:18:30.083Z,986.33
2018-06-12T09:19:30.319Z,986.36
2018-06-12T09:20:30.556Z,986.42
2018-06-12T09:21:30.789Z,986.37
2018-06-12T09:22:31.024Z,986.36
2018-06-12T09:23:31.260Z,986.35
2018-06-12T09:24:31.499Z,986.38
2018-06-12T09:25:31.734Z,986.37
2018-06-12T09:26:31.968Z,986.37
2018-06-12T09:27:32.202Z,986.36
2018-06-12T09:28:32.436Z,986.40
2018-06-12T09:29:32.676Z,986.43
2018-06-12T09:30:32.911Z,986.46
2018-06-12T09:31:33.151Z,986.44
2018-06-12T09:32:33.382Z,986.41
2018-06-12T09:33:33.617Z,986.39
2018-06-12T09:34:33.843Z,986.45
2018-06-12T09:35:34.092Z,986.46
2018-06-12T09:36:34.328Z,986.39
2018-06-12T09:37:34.563Z,986.41
2018-06-12T09:38:34.801Z,986.44
2018-06-12T09:39:35.040Z,986.47
2018-06-12T09:40:35.274Z,986.47
2018-06-12T09:41:35.505Z,986.36
2018-06-12T09:42:35.742Z,986.40
2018-06-12T09:43:35.989Z,986.38
2018-06-12T09:44:36.219Z,986.47
2018-06-12T09:45:36.451Z,986.40
2018-06-12T09:46:36.682Z,986.43
2018-06-12T09:47:36.922Z,986.44
2018-06-12T09:48:37.156Z,986.41
2018-06-12T09:49:37.394Z,986.40
2018-06-12T09:50:37.626Z,986.48
2018-06-12T09:51:37.861Z,986.47
2018-06-12T09:52:38.097Z,986.44
2018-06-12T09:53:38.333Z,986.43
2018-06-12T09:54:38.568Z,986.48
2018-06-12T09:55:38.802Z,986.43
2018-06-12T09:56:39.039Z,986.43
2018-06-12T09:57:39.326Z,986.44
2018-06-12T09:58:39.509Z,986.40
2018-06-12T09:59:39.745Z,986.50
2018-06-12T10:00:39.979Z,986.52
2018-06-12T10:01:40.211Z,986.47
2018-06-12T10:02:40.459Z,986.50
2018-06-12T10:03:40.686Z,986.48
2018-06-12T10:04:40.920Z,986.46
2018-06-12T10:05:41.158Z,986.56
2018-06-12T10:06:41.392Z,986.55
2018-06-12T10:07:41.629Z,986.58
2018-06-12T10:08:41.865Z,986.51
2018-06-12T10:09:42.118Z,986.53
2018-06-12T10:10:42.352Z,986.53
2018-06-12T10:11:42.594Z,986.51
2018-06-12T10:12:42.826Z,986.46
2018-06-12T10:13:43.062Z,986.45
2018-06-12T10:14:43.300Z,986.43
2018-06-12T10:15:43.534Z,986.47
2018-06-12T10:16:43.773Z,986.47
2018-06-12T10:17:44.014Z,986.46
2018-06-12T10:18:44.265Z,986.45
2018-06-12T10:19:44.477Z,986.48
2018-06-12T10:20:44.713Z,986.41
2018-06-12T10:21:44.950Z,986.47
2018-06-12T10:22:45.189Z,986.44
2018-06-12T10:23:45.425Z,986.48
2018-06-12T10:24:45.656Z,986.43
2018-06-12T10:25:45.898Z,986.44
2018-06-12T10:26:46.131Z,986.46
2018-06-12T10:27:46.368Z,986.41
2018-06-12T10:28:46.601Z,986.42
2018-06-12T10:29:46.836Z,986.41
2018-06-12T10:30:47.069Z,986.36
2018-06-12T10:31:47.305Z,986.46
2018-06-12T10:32:47.540Z,986.44
2018-06-12T10:33:47.775Z,986.45
2018-06-12T10:34:48.010Z,986.42
2018-06-12T10:35:48.245Z,986.44
2018-06-12T10:36:48.481Z,986.41
2018-06-12T10:37:48.715Z,986.42
2018-06-12T10:38:48.951Z,986.44
2018-06-12T10:39:49.187Z,986.42
2018-06-12T10:40:49.414Z,986.37
2018-06-12T10:41:49.653Z,986.38
2018-06-12T10:42:49.881Z,986.39
2018-06-12T10:43:50.118Z,986.37
2018-06-12T10:44:50.352Z,986.41
2018-06-12T10:45:50.590Z,986.37
2018-06-12T10:46:50.821Z,986.32
2018-06-12T10:47:51.057Z,986.32
2018-06-12T10:48:51.298Z,986.36
2018-06-12T10:49:51.532Z,986.37
2018-06-12T10:50:51.769Z,986.40
2018-06-12T10:51:52.006Z,986.40
2018-06-12T10:52:52.240Z,986.40
2018-06-12T10:53:52.472Z,986.39
2018-06-12T10:54:52.707Z,986.38
2018-06-12T10:55:52.939Z,986.40
2018-06-12T10:56:53.178Z,986.41
2018-06-12T10:57:53.415Z,986.46
2018-06-12T10:58:53.644Z,986.36
2018-06-12T10:59:53.882Z,986.41
2018-06-12T11:00:54.117Z,986.37
2018-06-12T11:01:54.354Z,986.37
2018-06-12T11:02:54.575Z,986.41
2018-06-12T11:03:54.810Z,986.37
2018-06-12T11:04:55.039Z,986.39
2018-06-12T11:05:55.274Z,986.41
2018-06-12T11:06:55.507Z,986.40
2018-06-12T11:07:55.744Z,986.41
2018-06-12T11:08:55.980Z,986.38
2018-06-12T11:09:56.214Z,986.45
2018-06-12T11:10:56.480Z,986.36
2018-06-12T11:11:56.693Z,986.36
2018-06-12T11:12:56.926Z,986.38
2018-06-12T11:13:57.163Z,986.40
2018-06-12T11:14:57.397Z,986.36
2018-06-12T11:15:57.630Z,986.41
2018-06-12T11:16:57.867Z,986.40
2018-06-12T11:17:58.101Z,986.40
2018-06-12T11:18:58.334Z,986.44
2018-06-12T11:19:58.573Z,986.38
2018-06-12T11:20:58.802Z,986.41
2018-06-12T11:21:59.041Z,986.38
2018-06-12T11:22:59.276Z,986.37
2018-06-12T11:23:59.509Z,986.41
2018-06-12T11:24:59.749Z,986.35
2018-06-12T11:25:59.988Z,986.36
2018-06-12T11:27:00.226Z,986.35
2018-06-12T11:28:00.462Z,986.37
2018-06-12T11:29:00.696Z,986.42
2018-06-12T11:30:00.930Z,986.36
2018-06-12T11:31:01.166Z,986.35
2018-06-12T11:32:01.401Z,986.34
2018-06-12T11:33:01.669Z,986.35
2018-06-12T11:34:01.875Z,986.33
2018-06-12T11:35:02.112Z,986.39
2018-06-12T11:36:02.346Z,986.37
2018-06-12T11:37:02.584Z,986.32
2018-06-12T11:38:02.816Z,986.38
2018-06-12T11:39:03.049Z,986.34
2018-06-12T11:40:03.283Z,986.37
2018-06-12T11:41:03.523Z,986.38
2018-06-12T11:42:03.755Z,986.28
2018-06-12T11:43:03.992Z,986.31
2018-06-12T11:44:04.225Z,986.40
2018-06-12T11:45:04.458Z,986.31
2018-06-12T11:46:04.688Z,986.29
2018-06-12T11:47:04.923Z,986.30
2018-06-12T11:48:05.160Z,986.31
2018-06-12T11:49:05.390Z,986.31
2018-06-12T11:50:05.625Z,986.34
2018-06-12T11:51:05.939Z,986.34
2018-06-12T11:52:06.098Z,986.32
2018-06-12T11:53:06.329Z,986.29
2018-06-12T11:54:06.567Z,986.29
2018-06-12T11:55:06.793Z,986.30
2018-06-12T11:56:07.030Z,986.29
2018-06-12T11:57:07.265Z,986.25
2018-06-12T11:58:07.497Z,986.31
2018-06-12T11:59:07.731Z,986.27
2018-06-12T12:00:07.968Z,986.32
2018-06-12T12:01:08.242Z,986.31
2018-06-12T12:02:08.437Z,986.37
2018-06-12T12:03:08.676Z,986.36
2018-06-12T12:04:08.908Z,986.31
2018-06-12T12:05:09.139Z,986.33
2018-06-12T12:06:09.376Z,986.31
2018-06-12T12:07:09.618Z,986.30
2018-06-12T12:08:09.847Z,986.29
2018-06-12T12:09:10.083Z,986.36
2018-06-12T12:10:10.317Z,986.36
2018-06-12T12:11:10.551Z,986.34
2018-06-12T12:12:10.786Z,986.39
2018-06-12T12:13:11.023Z,986.36
2018-06-12T12:14:11.256Z,986.39
2018-06-12T12:15:11.489Z,986.37
2018-06-12T12:16:11.726Z,986.40
2018-06-12T12:17:11.963Z,986.39
2018-06-12T12:18:12.191Z,986.35
2018-06-12T12:19:12.426Z,986.38
2018-06-12T12:20:12.662Z,986.40
2018-06-12T12:21:12.896Z,986.37
2018-06-12T12:22:13.134Z,986.33
2018-06-12T12:23:13.374Z,986.36
2018-06-12T12:24:13.601Z,986.41
2018-06-12T12:25:13.836Z,986.34
2018-06-12T12:26:14.070Z,986.36
2018-06-12T12:27:14.309Z,986.38
2018-06-12T12:28:14.545Z,986.38
2018-06-12T12:29:14.781Z,986.37
2018-06-12T12:30:15.013Z,986.33
2018-06-12T12:31:15.246Z,986.31
2018-06-12T12:32:15.486Z,986.40
2018-06-12T12:33:15.721Z,986.32
2018-06-12T12:34:15.951Z,986.35